Reeders, Pennsylvania
Current Conditions -  °F | °C
As of 3:53 PM on Sunday 23 Nov 2014 (Local Time) from KMPO Reporting Station
Clear Clear  
Wind Chill: 51°   Ceiling: Unl
Heat Index: 51°   Visibility: 10mi
Dew Point: 27°   Wind: 7mph
Humidity: 39%   Direction: 190°S
Pressure: 30.07"   Gusts: NA
Location:  41.02°N, 75.34°W
Report Text: KMPO 232053Z AUTO 19006KT 10SM CLR 11/M03 A3007 RMK AO2 SLP193 T01061028 58003
Loading
Personal Weather Stations






























Interactive Weather Map New forecast layout! Learn more

10-Day Weather Forecast

Advertisements
Track Severe Weather on mobile